sensor_id;sensor_type;location;lat;lon;timestamp;P1;durP1;ratioP1;P2;durP2;ratioP2
20535;SDS011;10426;49.420;8.390;2022-12-18T00:01:21;63.53;;;38.75;;
20535;SDS011;10426;49.420;8.390;2022-12-18T00:03:48;62.13;;;37.87;;
20535;SDS011;10426;49.420;8.390;2022-12-18T00:06:14;63.45;;;38.47;;
20535;SDS011;10426;49.420;8.390;2022-12-18T00:08:41;57.15;;;37.08;;
20535;SDS011;10426;49.420;8.390;2022-12-18T00:11:11;63.72;;;39.90;;
20535;SDS011;10426;49.420;8.390;2022-12-18T00:13:38;63.20;;;39.00;;
20535;SDS011;10426;49.420;8.390;2022-12-18T00:16:06;63.45;;;39.10;;
20535;SDS011;10426;49.420;8.390;2022-12-18T00:18:33;60.60;;;39.53;;
20535;SDS011;10426;49.420;8.390;2022-12-18T00:21:00;63.38;;;40.25;;
20535;SDS011;10426;49.420;8.390;2022-12-18T00:23:27;63.28;;;38.75;;
20535;SDS011;10426;49.420;8.390;2022-12-18T00:25:53;60.30;;;38.20;;
20535;SDS011;10426;49.420;8.390;2022-12-18T00:28:21;60.95;;;38.47;;
20535;SDS011;10426;49.420;8.390;2022-12-18T00:30:48;59.42;;;37.40;;
20535;SDS011;10426;49.420;8.390;2022-12-18T00:33:16;61.97;;;38.67;;
20535;SDS011;10426;49.420;8.390;2022-12-18T00:35:43;57.47;;;37.97;;
20535;SDS011;10426;49.420;8.390;2022-12-18T00:38:10;60.47;;;38.75;;
20535;SDS011;10426;49.420;8.390;2022-12-18T00:40:36;60.42;;;37.80;;
20535;SDS011;10426;49.420;8.390;2022-12-18T00:43:03;65.13;;;39.08;;
20535;SDS011;10426;49.420;8.390;2022-12-18T00:45:30;58.63;;;36.97;;
20535;SDS011;10426;49.420;8.390;2022-12-18T00:47:57;61.95;;;37.75;;
20535;SDS011;10426;49.420;8.390;2022-12-18T00:50:24;60.53;;;37.42;;
20535;SDS011;10426;49.420;8.390;2022-12-18T00:52:51;56.50;;;37.00;;
20535;SDS011;10426;49.420;8.390;2022-12-18T00:55:17;63.78;;;39.75;;
20535;SDS011;10426;49.420;8.390;2022-12-18T00:57:44;63.55;;;40.20;;
20535;SDS011;10426;49.420;8.390;2022-12-18T01:00:11;62.38;;;38.65;;
20535;SDS011;10426;49.420;8.390;2022-12-18T01:02:40;58.47;;;37.40;;
20535;SDS011;10426;49.420;8.390;2022-12-18T01:05:07;62.97;;;38.60;;
20535;SDS011;10426;49.420;8.390;2022-12-18T01:07:34;64.07;;;38.30;;
20535;SDS011;10426;49.420;8.390;2022-12-18T01:10:00;60.83;;;37.00;;
20535;SDS011;10426;49.420;8.390;2022-12-18T01:12:27;58.72;;;37.95;;
20535;SDS011;10426;49.420;8.390;2022-12-18T01:14:53;58.28;;;37.33;;
20535;SDS011;10426;49.420;8.390;2022-12-18T01:17:20;57.30;;;36.72;;
20535;SDS011;10426;49.420;8.390;2022-12-18T01:19:48;60.95;;;37.30;;
20535;SDS011;10426;49.420;8.390;2022-12-18T01:22:15;62.60;;;38.37;;
20535;SDS011;10426;49.420;8.390;2022-12-18T01:24:42;88.00;;;49.33;;
20535;SDS011;10426;49.420;8.390;2022-12-18T01:27:08;60.42;;;38.78;;
20535;SDS011;10426;49.420;8.390;2022-12-18T01:29:35;64.10;;;40.85;;
20535;SDS011;10426;49.420;8.390;2022-12-18T01:32:01;57.00;;;36.85;;
20535;SDS011;10426;49.420;8.390;2022-12-18T01:34:28;76.15;;;45.70;;
20535;SDS011;10426;49.420;8.390;2022-12-18T01:36:56;87.60;;;53.38;;
20535;SDS011;10426;49.420;8.390;2022-12-18T01:39:23;71.97;;;45.35;;
20535;SDS011;10426;49.420;8.390;2022-12-18T01:41:49;61.60;;;39.35;;
20535;SDS011;10426;49.420;8.390;2022-12-18T01:47:13;56.13;;;37.20;;
20535;SDS011;10426;49.420;8.390;2022-12-18T01:49:40;57.17;;;37.93;;
20535;SDS011;10426;49.420;8.390;2022-12-18T01:52:08;78.65;;;51.33;;
20535;SDS011;10426;49.420;8.390;2022-12-18T01:54:35;62.60;;;41.30;;
20535;SDS011;10426;49.420;8.390;2022-12-18T01:57:01;56.55;;;37.13;;
20535;SDS011;10426;49.420;8.390;2022-12-18T01:59:28;65.80;;;44.67;;
20535;SDS011;10426;49.420;8.390;2022-12-18T02:01:57;55.58;;;38.17;;
20535;SDS011;10426;49.420;8.390;2022-12-18T02:04:25;59.10;;;40.90;;
20535;SDS011;10426;49.420;8.390;2022-12-18T02:06:54;52.40;;;36.20;;
20535;SDS011;10426;49.420;8.390;2022-12-18T02:09:24;55.80;;;35.60;;
20535;SDS011;10426;49.420;8.390;2022-12-18T02:11:53;63.83;;;38.25;;
20535;SDS011;10426;49.420;8.390;2022-12-18T02:14:23;57.63;;;36.33;;
20535;SDS011;10426;49.420;8.390;2022-12-18T02:16:52;59.20;;;37.60;;
20535;SDS011;10426;49.420;8.390;2022-12-18T02:19:27;60.35;;;37.58;;
20535;SDS011;10426;49.420;8.390;2022-12-18T02:22:04;54.55;;;35.53;;
20535;SDS011;10426;49.420;8.390;2022-12-18T02:24:35;56.20;;;36.30;;
20535;SDS011;10426;49.420;8.390;2022-12-18T02:27:06;56.10;;;35.97;;
20535;SDS011;10426;49.420;8.390;2022-12-18T02:29:35;59.95;;;37.83;;
20535;SDS011;10426;49.420;8.390;2022-12-18T02:32:04;58.42;;;36.60;;
20535;SDS011;10426;49.420;8.390;2022-12-18T02:34:32;58.25;;;36.35;;
20535;SDS011;10426;49.420;8.390;2022-12-18T02:37:02;56.42;;;36.47;;
20535;SDS011;10426;49.420;8.390;2022-12-18T02:39:30;59.25;;;36.85;;
20535;SDS011;10426;49.420;8.390;2022-12-18T02:41:58;61.43;;;37.03;;
20535;SDS011;10426;49.420;8.390;2022-12-18T02:44:28;67.18;;;39.58;;
20535;SDS011;10426;49.420;8.390;2022-12-18T02:46:54;63.40;;;38.65;;
20535;SDS011;10426;49.420;8.390;2022-12-18T02:49:24;63.42;;;39.05;;
20535;SDS011;10426;49.420;8.390;2022-12-18T02:51:53;62.55;;;36.97;;
20535;SDS011;10426;49.420;8.390;2022-12-18T02:54:25;60.67;;;37.00;;
20535;SDS011;10426;49.420;8.390;2022-12-18T02:56:54;64.07;;;37.20;;
20535;SDS011;10426;49.420;8.390;2022-12-18T02:59:23;61.75;;;36.85;;
20535;SDS011;10426;49.420;8.390;2022-12-18T03:01:54;63.85;;;38.45;;
20535;SDS011;10426;49.420;8.390;2022-12-18T03:04:23;68.57;;;38.83;;
20535;SDS011;10426;49.420;8.390;2022-12-18T03:06:53;69.70;;;40.85;;
20535;SDS011;10426;49.420;8.390;2022-12-18T03:09:21;64.88;;;39.17;;
20535;SDS011;10426;49.420;8.390;2022-12-18T03:11:50;63.35;;;38.53;;
20535;SDS011;10426;49.420;8.390;2022-12-18T03:14:37;61.40;;;38.20;;
20535;SDS011;10426;49.420;8.390;2022-12-18T03:17:06;62.35;;;38.50;;
20535;SDS011;10426;49.420;8.390;2022-12-18T03:19:33;64.70;;;38.85;;
20535;SDS011;10426;49.420;8.390;2022-12-18T03:22:02;58.13;;;36.80;;
20535;SDS011;10426;49.420;8.390;2022-12-18T03:24:29;57.35;;;35.55;;
20535;SDS011;10426;49.420;8.390;2022-12-18T03:27:02;58.70;;;36.85;;
20535;SDS011;10426;49.420;8.390;2022-12-18T03:29:31;55.10;;;34.77;;
20535;SDS011;10426;49.420;8.390;2022-12-18T03:32:01;59.80;;;37.07;;
20535;SDS011;10426;49.420;8.390;2022-12-18T03:34:30;60.28;;;36.75;;
20535;SDS011;10426;49.420;8.390;2022-12-18T03:36:58;57.50;;;34.88;;
20535;SDS011;10426;49.420;8.390;2022-12-18T03:39:25;54.53;;;33.80;;
20535;SDS011;10426;49.420;8.390;2022-12-18T03:41:52;53.22;;;33.20;;
20535;SDS011;10426;49.420;8.390;2022-12-18T03:44:23;53.35;;;33.78;;
20535;SDS011;10426;49.420;8.390;2022-12-18T03:46:54;52.65;;;33.58;;
20535;SDS011;10426;49.420;8.390;2022-12-18T03:49:24;54.90;;;33.78;;
20535;SDS011;10426;49.420;8.390;2022-12-18T03:51:54;55.63;;;34.37;;
20535;SDS011;10426;49.420;8.390;2022-12-18T03:54:22;58.25;;;34.42;;
20535;SDS011;10426;49.420;8.390;2022-12-18T03:56:53;61.60;;;35.40;;
20535;SDS011;10426;49.420;8.390;2022-12-18T03:59:22;57.65;;;34.60;;
20535;SDS011;10426;49.420;8.390;2022-12-18T04:01:50;55.90;;;34.50;;
20535;SDS011;10426;49.420;8.390;2022-12-18T04:04:18;60.97;;;35.78;;
20535;SDS011;10426;49.420;8.390;2022-12-18T04:06:45;55.90;;;34.70;;
20535;SDS011;10426;49.420;8.390;2022-12-18T04:09:14;59.15;;;35.38;;
20535;SDS011;10426;49.420;8.390;2022-12-18T04:11:41;56.53;;;33.83;;
20535;SDS011;10426;49.420;8.390;2022-12-18T04:14:09;57.00;;;35.42;;
20535;SDS011;10426;49.420;8.390;2022-12-18T04:16:35;64.20;;;36.25;;
20535;SDS011;10426;49.420;8.390;2022-12-18T04:19:02;58.88;;;35.40;;
20535;SDS011;10426;49.420;8.390;2022-12-18T04:21:29;57.17;;;34.30;;
20535;SDS011;10426;49.420;8.390;2022-12-18T04:23:55;60.85;;;35.85;;
20535;SDS011;10426;49.420;8.390;2022-12-18T04:26:23;58.13;;;34.33;;
20535;SDS011;10426;49.420;8.390;2022-12-18T04:28:50;58.97;;;34.60;;
20535;SDS011;10426;49.420;8.390;2022-12-18T04:31:17;60.40;;;35.47;;
20535;SDS011;10426;49.420;8.390;2022-12-18T04:33:43;70.72;;;36.88;;
20535;SDS011;10426;49.420;8.390;2022-12-18T04:36:10;59.50;;;35.28;;
20535;SDS011;10426;49.420;8.390;2022-12-18T04:38:37;63.33;;;35.90;;
20535;SDS011;10426;49.420;8.390;2022-12-18T04:41:04;61.92;;;35.42;;
20535;SDS011;10426;49.420;8.390;2022-12-18T04:43:32;68.55;;;37.33;;
20535;SDS011;10426;49.420;8.390;2022-12-18T04:46:02;63.47;;;36.83;;
20535;SDS011;10426;49.420;8.390;2022-12-18T04:48:29;65.72;;;37.00;;
20535;SDS011;10426;49.420;8.390;2022-12-18T04:50:55;57.40;;;34.80;;
20535;SDS011;10426;49.420;8.390;2022-12-18T04:53:22;62.13;;;36.50;;
20535;SDS011;10426;49.420;8.390;2022-12-18T04:55:49;58.03;;;35.00;;
20535;SDS011;10426;49.420;8.390;2022-12-18T04:58:15;58.88;;;35.00;;
20535;SDS011;10426;49.420;8.390;2022-12-18T05:00:43;57.50;;;34.50;;
20535;SDS011;10426;49.420;8.390;2022-12-18T05:03:10;53.92;;;33.97;;
20535;SDS011;10426;49.420;8.390;2022-12-18T05:05:36;59.40;;;36.38;;
20535;SDS011;10426;49.420;8.390;2022-12-18T05:08:03;59.45;;;34.38;;
20535;SDS011;10426;49.420;8.390;2022-12-18T05:10:30;57.50;;;34.53;;
20535;SDS011;10426;49.420;8.390;2022-12-18T05:12:56;65.20;;;36.47;;
20535;SDS011;10426;49.420;8.390;2022-12-18T05:15:27;53.72;;;32.95;;
20535;SDS011;10426;49.420;8.390;2022-12-18T05:17:55;61.72;;;35.55;;
20535;SDS011;10426;49.420;8.390;2022-12-18T05:20:22;60.22;;;36.20;;
20535;SDS011;10426;49.420;8.390;2022-12-18T05:22:49;55.33;;;33.47;;
20535;SDS011;10426;49.420;8.390;2022-12-18T05:25:16;63.58;;;34.13;;
20535;SDS011;10426;49.420;8.390;2022-12-18T05:27:43;64.03;;;34.85;;
20535;SDS011;10426;49.420;8.390;2022-12-18T05:30:10;52.08;;;32.85;;
20535;SDS011;10426;49.420;8.390;2022-12-18T05:32:37;55.58;;;33.05;;
20535;SDS011;10426;49.420;8.390;2022-12-18T05:35:06;55.25;;;33.90;;
20535;SDS011;10426;49.420;8.390;2022-12-18T05:37:33;50.88;;;32.20;;
20535;SDS011;10426;49.420;8.390;2022-12-18T05:40:00;50.13;;;32.63;;
20535;SDS011;10426;49.420;8.390;2022-12-18T05:42:27;53.47;;;33.00;;
20535;SDS011;10426;49.420;8.390;2022-12-18T05:44:54;52.92;;;33.20;;
20535;SDS011;10426;49.420;8.390;2022-12-18T05:47:20;60.38;;;34.47;;
20535;SDS011;10426;49.420;8.390;2022-12-18T05:49:47;54.45;;;33.95;;
20535;SDS011;10426;49.420;8.390;2022-12-18T05:52:15;58.15;;;35.15;;
20535;SDS011;10426;49.420;8.390;2022-12-18T05:54:41;56.10;;;34.22;;
20535;SDS011;10426;49.420;8.390;2022-12-18T05:57:08;62.37;;;35.67;;
20535;SDS011;10426;49.420;8.390;2022-12-18T05:59:35;61.90;;;35.92;;
20535;SDS011;10426;49.420;8.390;2022-12-18T06:02:02;60.75;;;35.45;;
20535;SDS011;10426;49.420;8.390;2022-12-18T06:04:28;61.13;;;35.55;;
20535;SDS011;10426;49.420;8.390;2022-12-18T06:06:55;58.42;;;35.42;;
20535;SDS011;10426;49.420;8.390;2022-12-18T06:09:23;56.87;;;35.60;;
20535;SDS011;10426;49.420;8.390;2022-12-18T06:11:51;60.63;;;35.08;;
20535;SDS011;10426;49.420;8.390;2022-12-18T06:14:17;60.17;;;36.15;;
20535;SDS011;10426;49.420;8.390;2022-12-18T06:16:44;63.25;;;37.78;;
20535;SDS011;10426;49.420;8.390;2022-12-18T06:19:13;66.40;;;37.60;;
20535;SDS011;10426;49.420;8.390;2022-12-18T06:21:40;63.85;;;36.38;;
20535;SDS011;10426;49.420;8.390;2022-12-18T06:24:07;64.13;;;36.90;;
20535;SDS011;10426;49.420;8.390;2022-12-18T06:26:37;58.40;;;35.42;;
20535;SDS011;10426;49.420;8.390;2022-12-18T06:29:04;59.28;;;35.38;;
20535;SDS011;10426;49.420;8.390;2022-12-18T06:31:30;56.60;;;34.72;;
20535;SDS011;10426;49.420;8.390;2022-12-18T06:33:57;58.75;;;35.22;;
20535;SDS011;10426;49.420;8.390;2022-12-18T06:36:24;60.42;;;36.05;;
20535;SDS011;10426;49.420;8.390;2022-12-18T06:38:51;54.10;;;34.08;;
20535;SDS011;10426;49.420;8.390;2022-12-18T06:41:18;54.97;;;34.33;;
20535;SDS011;10426;49.420;8.390;2022-12-18T06:43:46;57.03;;;34.25;;
20535;SDS011;10426;49.420;8.390;2022-12-18T06:46:12;53.92;;;34.30;;
20535;SDS011;10426;49.420;8.390;2022-12-18T06:48:39;53.45;;;32.63;;
20535;SDS011;10426;49.420;8.390;2022-12-18T06:51:06;58.30;;;33.72;;
20535;SDS011;10426;49.420;8.390;2022-12-18T06:53:33;56.30;;;34.55;;
20535;SDS011;10426;49.420;8.390;2022-12-18T06:56:00;57.10;;;34.50;;
20535;SDS011;10426;49.420;8.390;2022-12-18T06:58:26;54.70;;;33.78;;
20535;SDS011;10426;49.420;8.390;2022-12-18T07:00:54;54.50;;;33.55;;
20535;SDS011;10426;49.420;8.390;2022-12-18T07:03:25;52.88;;;32.95;;
20535;SDS011;10426;49.420;8.390;2022-12-18T07:05:51;56.00;;;34.05;;
20535;SDS011;10426;49.420;8.390;2022-12-18T07:08:18;53.80;;;33.75;;
20535;SDS011;10426;49.420;8.390;2022-12-18T07:10:45;56.42;;;34.33;;
20535;SDS011;10426;49.420;8.390;2022-12-18T07:13:11;54.08;;;33.28;;
20535;SDS011;10426;49.420;8.390;2022-12-18T07:15:38;54.85;;;33.60;;
20535;SDS011;10426;49.420;8.390;2022-12-18T07:18:06;65.80;;;38.30;;
20535;SDS011;10426;49.420;8.390;2022-12-18T07:20:33;60.60;;;36.45;;
20535;SDS011;10426;49.420;8.390;2022-12-18T07:23:01;61.22;;;36.13;;
20535;SDS011;10426;49.420;8.390;2022-12-18T07:25:27;66.38;;;36.22;;
20535;SDS011;10426;49.420;8.390;2022-12-18T07:27:54;63.10;;;36.97;;
20535;SDS011;10426;49.420;8.390;2022-12-18T07:30:21;63.53;;;37.20;;
20535;SDS011;10426;49.420;8.390;2022-12-18T07:32:47;57.65;;;35.15;;
20535;SDS011;10426;49.420;8.390;2022-12-18T07:35:15;56.15;;;34.08;;
20535;SDS011;10426;49.420;8.390;2022-12-18T07:37:42;64.17;;;36.23;;
20535;SDS011;10426;49.420;8.390;2022-12-18T07:40:09;67.13;;;38.40;;
20535;SDS011;10426;49.420;8.390;2022-12-18T07:42:36;68.43;;;37.20;;
20535;SDS011;10426;49.420;8.390;2022-12-18T07:45:03;60.60;;;35.63;;
20535;SDS011;10426;49.420;8.390;2022-12-18T07:47:30;57.33;;;34.97;;
20535;SDS011;10426;49.420;8.390;2022-12-18T07:49:56;56.10;;;34.95;;
20535;SDS011;10426;49.420;8.390;2022-12-18T07:52:24;61.77;;;36.60;;
20535;SDS011;10426;49.420;8.390;2022-12-18T07:54:51;73.55;;;38.22;;
20535;SDS011;10426;49.420;8.390;2022-12-18T07:57:18;61.60;;;35.47;;
20535;SDS011;10426;49.420;8.390;2022-12-18T07:59:44;59.90;;;35.63;;
20535;SDS011;10426;49.420;8.390;2022-12-18T08:02:11;68.90;;;38.20;;
20535;SDS011;10426;49.420;8.390;2022-12-18T08:04:38;64.25;;;37.33;;
20535;SDS011;10426;49.420;8.390;2022-12-18T08:07:04;62.35;;;37.22;;
20535;SDS011;10426;49.420;8.390;2022-12-18T08:09:32;71.65;;;39.42;;
20535;SDS011;10426;49.420;8.390;2022-12-18T08:11:59;77.00;;;38.58;;
20535;SDS011;10426;49.420;8.390;2022-12-18T08:14:26;68.33;;;38.07;;
20535;SDS011;10426;49.420;8.390;2022-12-18T08:16:52;64.32;;;37.53;;
20535;SDS011;10426;49.420;8.390;2022-12-18T08:19:19;61.97;;;36.33;;
20535;SDS011;10426;49.420;8.390;2022-12-18T08:21:46;60.80;;;36.80;;
20535;SDS011;10426;49.420;8.390;2022-12-18T08:24:13;61.10;;;36.55;;
20535;SDS011;10426;49.420;8.390;2022-12-18T08:26:41;56.20;;;35.30;;
20535;SDS011;10426;49.420;8.390;2022-12-18T08:29:08;56.67;;;36.13;;
20535;SDS011;10426;49.420;8.390;2022-12-18T08:31:35;63.28;;;38.03;;
20535;SDS011;10426;49.420;8.390;2022-12-18T08:34:01;57.53;;;35.97;;
20535;SDS011;10426;49.420;8.390;2022-12-18T08:36:28;55.05;;;34.95;;
20535;SDS011;10426;49.420;8.390;2022-12-18T08:38:55;61.10;;;37.25;;
20535;SDS011;10426;49.420;8.390;2022-12-18T08:41:22;60.20;;;36.35;;
20535;SDS011;10426;49.420;8.390;2022-12-18T08:43:51;60.92;;;38.47;;
20535;SDS011;10426;49.420;8.390;2022-12-18T08:46:36;58.42;;;36.08;;
20535;SDS011;10426;49.420;8.390;2022-12-18T08:49:03;57.30;;;35.88;;
20535;SDS011;10426;49.420;8.390;2022-12-18T08:51:30;57.17;;;37.17;;
20535;SDS011;10426;49.420;8.390;2022-12-18T08:53:57;56.00;;;36.30;;
20535;SDS011;10426;49.420;8.390;2022-12-18T08:56:24;58.90;;;37.43;;
20535;SDS011;10426;49.420;8.390;2022-12-18T08:58:53;57.70;;;37.03;;
20535;SDS011;10426;49.420;8.390;2022-12-18T09:01:20;70.07;;;38.83;;
20535;SDS011;10426;49.420;8.390;2022-12-18T09:03:47;54.70;;;36.17;;
20535;SDS011;10426;49.420;8.390;2022-12-18T09:06:14;53.75;;;34.78;;
20535;SDS011;10426;49.420;8.390;2022-12-18T09:08:41;52.07;;;35.70;;
20535;SDS011;10426;49.420;8.390;2022-12-18T09:11:10;56.97;;;36.70;;
20535;SDS011;10426;49.420;8.390;2022-12-18T09:13:38;54.80;;;36.83;;
20535;SDS011;10426;49.420;8.390;2022-12-18T09:16:06;54.93;;;36.57;;
20535;SDS011;10426;49.420;8.390;2022-12-18T09:18:33;53.92;;;35.90;;
20535;SDS011;10426;49.420;8.390;2022-12-18T09:20:59;57.55;;;37.15;;
20535;SDS011;10426;49.420;8.390;2022-12-18T09:23:26;60.45;;;38.72;;
20535;SDS011;10426;49.420;8.390;2022-12-18T09:25:58;56.22;;;37.58;;
20535;SDS011;10426;49.420;8.390;2022-12-18T09:28:26;55.00;;;37.63;;
20535;SDS011;10426;49.420;8.390;2022-12-18T09:30:52;54.03;;;36.28;;
20535;SDS011;10426;49.420;8.390;2022-12-18T09:33:20;54.90;;;36.63;;
20535;SDS011;10426;49.420;8.390;2022-12-18T09:35:47;52.25;;;35.17;;
20535;SDS011;10426;49.420;8.390;2022-12-18T09:38:14;46.08;;;32.78;;
20535;SDS011;10426;49.420;8.390;2022-12-18T09:40:42;44.83;;;31.50;;
20535;SDS011;10426;49.420;8.390;2022-12-18T09:43:12;40.88;;;29.65;;
20535;SDS011;10426;49.420;8.390;2022-12-18T09:45:42;42.67;;;30.90;;
20535;SDS011;10426;49.420;8.390;2022-12-18T09:48:11;41.53;;;31.42;;
20535;SDS011;10426;49.420;8.390;2022-12-18T09:50:42;40.20;;;30.73;;
20535;SDS011;10426;49.420;8.390;2022-12-18T09:53:11;42.27;;;30.80;;
20535;SDS011;10426;49.420;8.390;2022-12-18T09:55:41;42.45;;;31.08;;
20535;SDS011;10426;49.420;8.390;2022-12-18T09:58:12;40.17;;;30.02;;
20535;SDS011;10426;49.420;8.390;2022-12-18T10:00:40;40.97;;;30.10;;
20535;SDS011;10426;49.420;8.390;2022-12-18T10:03:08;39.65;;;30.15;;
20535;SDS011;10426;49.420;8.390;2022-12-18T10:05:37;43.15;;;32.13;;
20535;SDS011;10426;49.420;8.390;2022-12-18T10:08:10;40.13;;;30.70;;
20535;SDS011;10426;49.420;8.390;2022-12-18T10:10:38;40.03;;;30.75;;
20535;SDS011;10426;49.420;8.390;2022-12-18T10:13:09;33.58;;;27.02;;
20535;SDS011;10426;49.420;8.390;2022-12-18T10:15:37;31.33;;;25.77;;
20535;SDS011;10426;49.420;8.390;2022-12-18T10:18:10;30.80;;;25.67;;
20535;SDS011;10426;49.420;8.390;2022-12-18T10:20:40;32.20;;;26.60;;
20535;SDS011;10426;49.420;8.390;2022-12-18T10:23:11;31.17;;;25.70;;
20535;SDS011;10426;49.420;8.390;2022-12-18T10:25:41;31.70;;;25.60;;
20535;SDS011;10426;49.420;8.390;2022-12-18T10:28:13;31.00;;;25.92;;
20535;SDS011;10426;49.420;8.390;2022-12-18T10:30:40;32.97;;;27.00;;
20535;SDS011;10426;49.420;8.390;2022-12-18T10:33:08;30.98;;;25.88;;
20535;SDS011;10426;49.420;8.390;2022-12-18T10:35:35;32.70;;;26.67;;
20535;SDS011;10426;49.420;8.390;2022-12-18T10:38:03;31.25;;;25.63;;
20535;SDS011;10426;49.420;8.390;2022-12-18T10:40:32;30.48;;;24.98;;
20535;SDS011;10426;49.420;8.390;2022-12-18T10:43:03;32.28;;;25.60;;
20535;SDS011;10426;49.420;8.390;2022-12-18T10:45:29;30.77;;;25.60;;
20535;SDS011;10426;49.420;8.390;2022-12-18T10:47:56;30.33;;;25.17;;
20535;SDS011;10426;49.420;8.390;2022-12-18T10:50:25;32.00;;;25.88;;
20535;SDS011;10426;49.420;8.390;2022-12-18T10:52:57;32.88;;;26.10;;
20535;SDS011;10426;49.420;8.390;2022-12-18T10:55:24;29.35;;;24.33;;
20535;SDS011;10426;49.420;8.390;2022-12-18T10:57:53;31.98;;;25.23;;
20535;SDS011;10426;49.420;8.390;2022-12-18T11:00:22;30.67;;;24.67;;
20535;SDS011;10426;49.420;8.390;2022-12-18T11:02:49;29.80;;;24.88;;
20535;SDS011;10426;49.420;8.390;2022-12-18T11:05:23;30.98;;;25.15;;
20535;SDS011;10426;49.420;8.390;2022-12-18T11:07:50;31.20;;;25.02;;
20535;SDS011;10426;49.420;8.390;2022-12-18T11:10:19;30.60;;;24.55;;
20535;SDS011;10426;49.420;8.390;2022-12-18T11:12:46;30.83;;;25.07;;
20535;SDS011;10426;49.420;8.390;2022-12-18T11:15:16;31.60;;;24.95;;
20535;SDS011;10426;49.420;8.390;2022-12-18T11:17:45;30.17;;;24.63;;
20535;SDS011;10426;49.420;8.390;2022-12-18T11:20:19;30.98;;;24.98;;
20535;SDS011;10426;49.420;8.390;2022-12-18T11:22:54;30.53;;;25.00;;
20535;SDS011;10426;49.420;8.390;2022-12-18T11:25:21;30.33;;;24.75;;
20535;SDS011;10426;49.420;8.390;2022-12-18T11:27:49;28.83;;;24.08;;
20535;SDS011;10426;49.420;8.390;2022-12-18T11:30:22;31.00;;;24.58;;
20535;SDS011;10426;49.420;8.390;2022-12-18T11:32:49;31.75;;;24.38;;
20535;SDS011;10426;49.420;8.390;2022-12-18T11:35:18;30.25;;;24.42;;
20535;SDS011;10426;49.420;8.390;2022-12-18T11:37:47;30.25;;;25.00;;
20535;SDS011;10426;49.420;8.390;2022-12-18T11:40:15;31.75;;;25.85;;
20535;SDS011;10426;49.420;8.390;2022-12-18T11:42:45;30.83;;;25.07;;
20535;SDS011;10426;49.420;8.390;2022-12-18T11:45:28;30.97;;;24.90;;
20535;SDS011;10426;49.420;8.390;2022-12-18T11:48:01;31.65;;;24.83;;
20535;SDS011;10426;49.420;8.390;2022-12-18T11:50:30;32.58;;;25.73;;
20535;SDS011;10426;49.420;8.390;2022-12-18T11:52:58;32.27;;;25.57;;
20535;SDS011;10426;49.420;8.390;2022-12-18T11:55:28;31.13;;;25.40;;
20535;SDS011;10426;49.420;8.390;2022-12-18T11:57:56;29.95;;;24.83;;
20535;SDS011;10426;49.420;8.390;2022-12-18T12:00:24;33.30;;;25.33;;
20535;SDS011;10426;49.420;8.390;2022-12-18T12:03:06;33.50;;;25.60;;
20535;SDS011;10426;49.420;8.390;2022-12-18T12:05:41;32.63;;;25.30;;
20535;SDS011;10426;49.420;8.390;2022-12-18T12:08:13;32.03;;;25.45;;
20535;SDS011;10426;49.420;8.390;2022-12-18T12:10:45;31.83;;;25.53;;
20535;SDS011;10426;49.420;8.390;2022-12-18T12:13:18;34.15;;;25.15;;
20535;SDS011;10426;49.420;8.390;2022-12-18T12:15:50;33.22;;;25.58;;
20535;SDS011;10426;49.420;8.390;2022-12-18T12:18:22;33.30;;;25.38;;
20535;SDS011;10426;49.420;8.390;2022-12-18T12:20:53;32.45;;;25.70;;
20535;SDS011;10426;49.420;8.390;2022-12-18T12:23:27;32.60;;;25.33;;
20535;SDS011;10426;49.420;8.390;2022-12-18T12:25:56;32.83;;;26.60;;
20535;SDS011;10426;49.420;8.390;2022-12-18T12:28:26;30.40;;;24.85;;
20535;SDS011;10426;49.420;8.390;2022-12-18T12:30:59;31.27;;;25.10;;
20535;SDS011;10426;49.420;8.390;2022-12-18T12:33:33;29.40;;;24.85;;
20535;SDS011;10426;49.420;8.390;2022-12-18T12:36:04;31.30;;;25.13;;
20535;SDS011;10426;49.420;8.390;2022-12-18T12:38:35;31.67;;;25.33;;
20535;SDS011;10426;49.420;8.390;2022-12-18T12:41:04;35.00;;;29.02;;
20535;SDS011;10426;49.420;8.390;2022-12-18T12:43:33;43.13;;;33.83;;
20535;SDS011;10426;49.420;8.390;2022-12-18T12:46:03;48.28;;;38.20;;
20535;SDS011;10426;49.420;8.390;2022-12-18T12:48:35;46.70;;;37.33;;
20535;SDS011;10426;49.420;8.390;2022-12-18T12:51:04;35.25;;;27.60;;
20535;SDS011;10426;49.420;8.390;2022-12-18T12:53:34;32.28;;;25.55;;
20535;SDS011;10426;49.420;8.390;2022-12-18T12:56:02;33.25;;;25.23;;
20535;SDS011;10426;49.420;8.390;2022-12-18T12:58:31;31.30;;;24.95;;
20535;SDS011;10426;49.420;8.390;2022-12-18T13:01:03;31.67;;;25.73;;
20535;SDS011;10426;49.420;8.390;2022-12-18T13:03:33;31.60;;;24.83;;
20535;SDS011;10426;49.420;8.390;2022-12-18T13:06:04;34.90;;;27.88;;
20535;SDS011;10426;49.420;8.390;2022-12-18T13:08:51;45.85;;;36.63;;
20535;SDS011;10426;49.420;8.390;2022-12-18T13:11:27;35.53;;;27.50;;
20535;SDS011;10426;49.420;8.390;2022-12-18T13:14:19;33.33;;;26.90;;
20535;SDS011;10426;49.420;8.390;2022-12-18T13:16:46;32.40;;;24.10;;
20535;SDS011;10426;49.420;8.390;2022-12-18T13:19:19;33.97;;;24.38;;
20535;SDS011;10426;49.420;8.390;2022-12-18T13:21:48;30.73;;;23.88;;
20535;SDS011;10426;49.420;8.390;2022-12-18T13:24:21;31.50;;;25.08;;
20535;SDS011;10426;49.420;8.390;2022-12-18T13:26:49;30.25;;;24.58;;
20535;SDS011;10426;49.420;8.390;2022-12-18T13:29:31;32.85;;;24.85;;
20535;SDS011;10426;49.420;8.390;2022-12-18T13:32:10;33.65;;;25.63;;
20535;SDS011;10426;49.420;8.390;2022-12-18T13:34:45;29.33;;;24.67;;
20535;SDS011;10426;49.420;8.390;2022-12-18T13:39:58;32.75;;;25.40;;
20535;SDS011;10426;49.420;8.390;2022-12-18T13:45:35;33.15;;;24.38;;
20535;SDS011;10426;49.420;8.390;2022-12-18T13:48:03;31.77;;;25.20;;
20535;SDS011;10426;49.420;8.390;2022-12-18T13:50:30;32.38;;;25.25;;
20535;SDS011;10426;49.420;8.390;2022-12-18T13:52:57;33.38;;;26.50;;
20535;SDS011;10426;49.420;8.390;2022-12-18T13:55:25;32.07;;;25.10;;
20535;SDS011;10426;49.420;8.390;2022-12-18T13:57:55;32.45;;;24.67;;
20535;SDS011;10426;49.420;8.390;2022-12-18T14:00:29;32.78;;;25.90;;
20535;SDS011;10426;49.420;8.390;2022-12-18T14:02:56;33.20;;;25.15;;
20535;SDS011;10426;49.420;8.390;2022-12-18T14:05:23;31.40;;;24.23;;
20535;SDS011;10426;49.420;8.390;2022-12-18T14:07:49;30.45;;;24.30;;
20535;SDS011;10426;49.420;8.390;2022-12-18T14:10:16;30.83;;;24.35;;
20535;SDS011;10426;49.420;8.390;2022-12-18T14:12:46;30.83;;;24.73;;
20535;SDS011;10426;49.420;8.390;2022-12-18T14:15:27;29.48;;;24.23;;
20535;SDS011;10426;49.420;8.390;2022-12-18T14:17:59;33.70;;;24.67;;
20535;SDS011;10426;49.420;8.390;2022-12-18T14:20:26;31.02;;;24.50;;
20535;SDS011;10426;49.420;8.390;2022-12-18T14:22:53;30.85;;;24.17;;
20535;SDS011;10426;49.420;8.390;2022-12-18T14:25:21;29.60;;;24.03;;
20535;SDS011;10426;49.420;8.390;2022-12-18T14:27:50;32.08;;;26.02;;
20535;SDS011;10426;49.420;8.390;2022-12-18T14:30:23;32.38;;;25.20;;
20535;SDS011;10426;49.420;8.390;2022-12-18T14:32:59;33.47;;;24.80;;
20535;SDS011;10426;49.420;8.390;2022-12-18T14:35:25;31.02;;;24.23;;
20535;SDS011;10426;49.420;8.390;2022-12-18T14:37:52;31.45;;;25.40;;